createdAt,value
2019-01-29T00:00:29.900Z,5.08
2019-01-29T00:06:24.886Z,4.99
2019-01-29T00:12:19.904Z,5.6
2019-01-29T00:18:14.903Z,5.86
2019-01-29T00:24:09.871Z,3.83
2019-01-29T00:30:04.892Z,2.01
2019-01-29T00:35:59.883Z,1.7
2019-01-29T00:41:54.886Z,1.46
2019-01-29T00:47:49.899Z,1.24
2019-01-29T00:53:44.924Z,2.97
2019-01-29T00:59:39.911Z,3.38
2019-01-29T01:05:35.097Z,3.05
2019-01-29T02:10:40.019Z,3
2019-01-29T02:10:40.034Z,2.96
2019-01-29T02:10:40.039Z,2.96
2019-01-29T02:10:40.074Z,2.96
2019-01-29T02:10:40.094Z,2.96
2019-01-29T02:10:40.112Z,2.96
2019-01-29T02:10:40.124Z,2.96
2019-01-29T02:10:40.160Z,2.96
2019-01-29T02:10:40.169Z,2.96
2019-01-29T02:10:40.241Z,2.96
2019-01-29T02:10:40.252Z,2.96
2019-01-29T02:16:35.267Z,2.25
2019-01-29T02:22:29.943Z,3.37
2019-01-29T02:28:24.938Z,2.97
2019-01-29T02:34:19.968Z,3.31
2019-01-29T02:40:14.961Z,2.63
2019-01-29T02:46:09.972Z,3.12
2019-01-29T02:52:04.945Z,3.28
2019-01-29T02:57:59.971Z,2.77
2019-01-29T03:09:49.981Z,3.47
2019-01-29T03:09:50.011Z,3.22
2019-01-29T03:15:44.984Z,2.92
2019-01-29T03:21:39.973Z,3.34
2019-01-29T03:27:34.984Z,2.96
2019-01-29T03:33:30.016Z,2.92
2019-01-29T03:39:25.022Z,3.03
2019-01-29T03:45:19.992Z,3.44
2019-01-29T03:51:15.036Z,3.25
2019-01-29T04:32:40.054Z,3.14
2019-01-29T04:32:40.083Z,3.4
2019-01-29T04:32:40.108Z,3.4
2019-01-29T04:32:40.136Z,3.4
2019-01-29T04:32:40.195Z,3.4
2019-01-29T04:32:40.202Z,3.4
2019-01-29T04:32:40.208Z,3.4
2019-01-29T04:38:35.022Z,3.32
2019-01-29T04:44:30.013Z,3.43
2019-01-29T04:50:25.060Z,3.68
2019-01-29T04:56:20.096Z,3.73
2019-01-29T05:02:15.099Z,3.44
2019-01-29T05:08:10.044Z,3.31
2019-01-29T05:14:05.031Z,3.11
2019-01-29T05:20:00.034Z,3.37
2019-01-29T06:13:15.113Z,3.17
2019-01-29T06:13:15.149Z,2.21
2019-01-29T06:13:15.160Z,2.21
2019-01-29T06:13:15.190Z,2.21
2019-01-29T06:13:15.196Z,2.21
2019-01-29T06:13:15.243Z,2.21
2019-01-29T06:13:15.249Z,2.21
2019-01-29T06:13:15.287Z,2.21
2019-01-29T06:13:15.305Z,2.21
2019-01-29T06:19:10.064Z,2.3
2019-01-29T06:25:05.074Z,2.67
2019-01-29T06:31:00.099Z,2.38
2019-01-29T06:36:55.083Z,2.71
2019-01-29T06:42:51.173Z,2.63
2019-01-29T06:48:45.090Z,2.34
2019-01-29T06:54:40.388Z,2.65
2019-01-29T07:00:35.106Z,2.71
2019-01-29T07:12:25.103Z,2.74
2019-01-29T07:12:25.152Z,2.61
2019-01-29T07:18:20.094Z,3.47
2019-01-29T07:24:15.152Z,3.95
2019-01-29T07:30:10.118Z,4.4
2019-01-29T07:36:05.134Z,4.26
2019-01-29T07:42:00.116Z,4.57
2019-01-29T07:47:55.129Z,4.13
2019-01-29T07:53:50.129Z,3.53
2019-01-29T07:59:45.168Z,3.73
2019-01-29T08:35:15.191Z,4.52
2019-01-29T08:35:15.228Z,3.83
2019-01-29T08:35:15.231Z,3.83
2019-01-29T08:35:15.258Z,3.83
2019-01-29T08:35:15.269Z,3.83
2019-01-29T08:35:15.294Z,3.83
2019-01-29T08:41:10.149Z,3.63
2019-01-29T08:47:05.179Z,3.62
2019-01-29T08:53:00.185Z,3.91
2019-01-29T08:58:55.160Z,3.87
2019-01-29T09:04:50.154Z,4.63
2019-01-29T09:10:45.150Z,4.28
2019-01-29T09:16:40.228Z,4.37
2019-01-29T09:22:35.203Z,4.68
2019-01-29T09:28:30.184Z,6.42
2019-01-29T09:34:25.155Z,6.8
2019-01-29T09:40:20.193Z,6.63
2019-01-29T09:46:15.196Z,10.25
2019-01-29T09:52:10.182Z,12.76
2019-01-29T09:58:05.244Z,12.5
2019-01-29T10:04:00.264Z,12.35
2019-01-29T10:09:55.235Z,11.43
2019-01-29T10:15:50.230Z,12.06
2019-01-29T10:21:45.245Z,11.52
2019-01-29T10:27:40.559Z,10.02
2019-01-29T10:33:35.229Z,8.33
2019-01-29T10:39:30.212Z,8.43
2019-01-29T10:45:25.299Z,7.53
2019-01-29T10:51:20.235Z,5.52
2019-01-29T10:57:15.261Z,5.7
2019-01-29T11:03:10.233Z,4.54
2019-01-29T11:09:05.244Z,4.65
2019-01-29T11:15:00.305Z,4.5
2019-01-29T11:20:55.252Z,5.07
2019-01-29T11:26:50.345Z,3.77
2019-01-29T11:32:45.309Z,3.8
2019-01-29T11:38:40.577Z,2.28
2019-01-29T11:44:35.262Z,2.34
2019-01-29T11:50:30.295Z,2.08
2019-01-29T11:56:25.299Z,1.79
2019-01-29T12:02:27.995Z,2.01
2019-01-29T12:08:15.279Z,1.97
2019-01-29T12:14:10.279Z,2.06
2019-01-29T12:20:05.300Z,1.8
2019-01-29T12:26:00.269Z,1.87
2019-01-29T12:31:55.299Z,1.73
2019-01-29T12:37:50.272Z,1.4
2019-01-29T12:43:45.613Z,1.06
2019-01-29T12:49:40.616Z,1.07
2019-01-29T12:55:35.292Z,0.93
2019-01-29T13:01:30.287Z,1.07
2019-01-29T13:07:25.297Z,1.11
2019-01-29T13:13:20.319Z,1.12
2019-01-29T13:19:15.306Z,0.82
2019-01-29T13:25:10.303Z,1.04
2019-01-29T13:31:05.378Z,1.22
2019-01-29T13:37:00.317Z,0.87
2019-01-29T13:42:55.330Z,0.84
2019-01-29T13:48:50.330Z,0.8
2019-01-29T13:54:45.340Z,0.8
2019-01-29T14:00:40.343Z,1.06
2019-01-29T14:06:35.346Z,0.77
2019-01-29T14:12:30.330Z,1.22
2019-01-29T14:18:25.354Z,1.19
2019-01-29T14:24:20.360Z,0.87
2019-01-29T14:30:15.365Z,1
2019-01-29T14:36:16.311Z,0.96
2019-01-29T14:42:05.360Z,0.93
2019-01-29T14:48:00.390Z,1.23
2019-01-29T14:53:55.370Z,1.47
2019-01-29T14:59:50.411Z,2.95
2019-01-29T15:05:45.368Z,1.97
2019-01-29T15:11:40.434Z,2.15
2019-01-29T15:17:35.367Z,3.1
2019-01-29T15:23:30.388Z,1.35
2019-01-29T15:29:25.379Z,3.08
2019-01-29T15:35:20.392Z,2.97
2019-01-29T15:41:15.393Z,1.55
2019-01-29T15:47:10.410Z,0.87
2019-01-29T15:53:05.384Z,1.46
2019-01-29T15:59:00.382Z,6.64
2019-01-29T16:04:55.408Z,1.17
2019-01-29T16:10:50.456Z,2.29
2019-01-29T16:16:45.446Z,9.46
2019-01-29T16:22:40.460Z,2.23
2019-01-29T16:28:35.436Z,1.79
2019-01-29T16:34:30.422Z,2.03
2019-01-29T16:40:25.413Z,4.84
2019-01-29T16:46:20.420Z,4.17
2019-01-29T16:52:15.437Z,2.66
2019-01-29T16:58:10.466Z,2.16
2019-01-29T17:04:05.449Z,3.16
2019-01-29T17:10:00.445Z,3.51
2019-01-29T17:15:55.447Z,4.35
2019-01-29T17:21:50.459Z,3.57
2019-01-29T17:27:45.471Z,4.14
2019-01-29T17:33:40.758Z,0.52
2019-01-29T17:39:35.466Z,3.66
2019-01-29T17:45:30.490Z,4.58
2019-01-29T17:51:25.511Z,5.82
2019-01-29T17:57:20.472Z,4.99
2019-01-29T18:03:15.514Z,5.8
2019-01-29T18:09:10.478Z,7.89
2019-01-29T18:15:05.485Z,7.84
2019-01-29T18:21:00.472Z,5.93
2019-01-29T18:26:55.477Z,5.57
2019-01-29T18:32:50.549Z,5.88
2019-01-29T18:38:45.504Z,6.18
2019-01-29T18:44:40.794Z,7.07
2019-01-29T18:50:35.565Z,6.97
2019-01-29T18:56:30.481Z,6.66
2019-01-29T19:02:25.523Z,7.03
2019-01-29T19:08:20.536Z,5.28
2019-01-29T19:14:15.521Z,5.39
2019-01-29T19:20:10.615Z,5.65
2019-01-29T19:26:05.577Z,5.4
2019-01-29T19:32:00.542Z,5.42
2019-01-29T19:37:55.553Z,5.22
2019-01-29T19:43:50.841Z,5.08
2019-01-29T19:49:45.540Z,4.99
2019-01-29T19:55:40.887Z,5.46
2019-01-29T20:01:35.545Z,6.35
2019-01-29T20:13:25.575Z,4.96
2019-01-29T20:13:25.605Z,5.69
2019-01-29T20:19:20.595Z,6.43
2019-01-29T20:25:15.612Z,5.97
2019-01-29T20:31:10.570Z,6.27
2019-01-29T20:37:05.563Z,8.93
2019-01-29T20:43:00.607Z,7.72
2019-01-29T20:48:55.625Z,7.89
2019-01-29T20:54:50.593Z,7.54
2019-01-29T21:00:45.571Z,7.07
2019-01-29T21:06:40.594Z,6.48
2019-01-29T21:12:35.616Z,7.01
2019-01-29T21:18:30.583Z,6.94
2019-01-29T21:24:25.590Z,6.74
2019-01-29T21:30:20.579Z,7.26
2019-01-29T21:36:15.613Z,6.71
2019-01-29T21:42:10.577Z,7.4
2019-01-29T21:48:05.603Z,6.95
2019-01-29T21:54:00.627Z,6.88
2019-01-29T21:59:55.596Z,8.2
2019-01-29T22:05:50.723Z,8.37
2019-01-29T22:11:45.623Z,8.12
2019-01-29T22:17:40.611Z,8.3
2019-01-29T22:23:35.602Z,6.97
2019-01-29T22:29:30.636Z,8.12
2019-01-29T22:35:25.633Z,8.18
2019-01-29T22:41:20.635Z,7.87
2019-01-29T22:47:15.654Z,7.2
2019-01-29T22:53:10.635Z,6.77
2019-01-29T22:59:05.640Z,7.02
2019-01-29T23:05:00.672Z,6.25
2019-01-29T23:10:57.304Z,7.09
2019-01-29T23:16:50.661Z,6.72
2019-01-29T23:22:45.811Z,6.59
2019-01-29T23:28:40.673Z,6.44
2019-01-29T23:34:35.648Z,7.64
2019-01-29T23:40:30.664Z,7
2019-01-29T23:46:25.686Z,6.87
2019-01-29T23:52:20.687Z,6.97
2019-01-29T23:58:15.693Z,6.78
